createdAt,value
2022-12-04T00:00:18.116Z,64.10
2022-12-04T00:02:49.343Z,63.07
2022-12-04T00:05:22.484Z,72.93
2022-12-04T00:07:54.200Z,68.80
2022-12-04T00:10:23.450Z,68.20
2022-12-04T00:12:59.268Z,63.63
2022-12-04T00:15:30.232Z,61.23
2022-12-04T00:18:03.292Z,66.63
2022-12-04T00:20:32.465Z,69.43
2022-12-04T00:23:04.101Z,69.40
2022-12-04T00:25:41.079Z,71.90
2022-12-04T00:28:13.825Z,63.77
2022-12-04T00:30:51.949Z,63.67
2022-12-04T00:33:22.869Z,67.63
2022-12-04T00:36:04.297Z,64.23
2022-12-04T00:38:34.673Z,65.87
2022-12-04T00:41:07.300Z,59.33
2022-12-04T00:43:40.851Z,63.40
2022-12-04T00:46:13.244Z,60.97
2022-12-04T00:48:44.199Z,60.77
2022-12-04T00:51:16.827Z,57.67
2022-12-04T00:53:47.310Z,57.93
2022-12-04T00:56:22.281Z,57.87
2022-12-04T00:58:54.874Z,59.20
2022-12-04T01:01:28.240Z,56.23
2022-12-04T01:04:00.610Z,52.80
2022-12-04T01:06:31.625Z,56.23
2022-12-04T01:09:05.018Z,56.70
2022-12-04T01:11:34.023Z,59.40
2022-12-04T01:14:06.696Z,54.07
2022-12-04T01:16:41.356Z,60.10
2022-12-04T01:19:14.355Z,55.83
2022-12-04T01:21:48.286Z,54.70
2022-12-04T01:24:19.304Z,57.17
2022-12-04T01:26:52.047Z,59.57
2022-12-04T01:29:22.273Z,59.50
2022-12-04T01:31:53.506Z,56.50
2022-12-04T01:34:26.168Z,55.43
2022-12-04T01:36:56.930Z,53.87
2022-12-04T01:39:26.893Z,56.10
2022-12-04T01:41:58.169Z,53.23
2022-12-04T01:44:28.872Z,53.13
2022-12-04T01:47:01.490Z,54.07
2022-12-04T01:49:37.768Z,50.20
2022-12-04T01:52:12.591Z,55.80
2022-12-04T01:54:48.135Z,55.83
2022-12-04T01:57:21.353Z,53.30
2022-12-04T01:59:55.010Z,56.13
2022-12-04T02:02:32.799Z,54.40
2022-12-04T02:05:03.515Z,56.77
2022-12-04T02:07:35.475Z,55.47
2022-12-04T02:10:10.422Z,58.40
2022-12-04T02:12:49.928Z,55.60
2022-12-04T02:15:24.371Z,51.70
2022-12-04T02:18:01.585Z,56.03
2022-12-04T02:20:38.956Z,53.83
2022-12-04T02:23:42.689Z,56.40
2022-12-04T02:26:28.129Z,52.40
2022-12-04T02:29:12.397Z,49.47
2022-12-04T02:31:56.061Z,46.43
2022-12-04T02:34:30.760Z,45.97
2022-12-04T02:37:05.532Z,45.07
2022-12-04T02:39:40.437Z,44.60
2022-12-04T02:42:15.183Z,40.97
2022-12-04T02:45:31.235Z,45.63
2022-12-04T02:48:08.964Z,42.10
2022-12-04T02:50:45.481Z,46.43
2022-12-04T02:53:25.348Z,43.97
2022-12-04T02:56:01.431Z,43.87
2022-12-04T02:58:38.547Z,39.83
2022-12-04T03:01:24.443Z,45.40
2022-12-04T03:04:05.771Z,43.23
2022-12-04T03:06:40.777Z,43.07
2022-12-04T03:09:18.030Z,49.03
2022-12-04T03:11:54.682Z,48.93
2022-12-04T03:14:28.650Z,48.63
2022-12-04T03:17:04.314Z,53.70
2022-12-04T03:19:42.933Z,49.13
2022-12-04T03:22:19.611Z,49.97
2022-12-04T03:24:56.808Z,47.77
2022-12-04T03:27:36.853Z,52.87
2022-12-04T03:30:09.860Z,48.30
2022-12-04T03:32:45.844Z,51.40
2022-12-04T03:35:23.029Z,48.70
2022-12-04T03:38:02.031Z,46.33
2022-12-04T03:40:39.641Z,52.63
2022-12-04T03:43:17.400Z,54.27
2022-12-04T03:45:53.106Z,56.30
2022-12-04T03:48:25.678Z,55.97
2022-12-04T03:51:02.145Z,52.23
2022-12-04T03:53:41.467Z,54.03
2022-12-04T03:56:19.525Z,52.73
2022-12-04T03:58:58.541Z,53.40
2022-12-04T04:01:40.163Z,52.17
2022-12-04T04:04:21.680Z,50.90
2022-12-04T04:07:04.733Z,48.43
2022-12-04T04:09:44.196Z,45.80
2022-12-04T04:12:23.343Z,41.93
2022-12-04T04:15:17.488Z,46.87
2022-12-04T04:18:10.278Z,42.93
2022-12-04T04:21:05.444Z,42.53
2022-12-04T04:24:02.099Z,43.07
2022-12-04T04:26:37.544Z,38.10
2022-12-04T04:29:07.079Z,39.37
2022-12-04T04:31:42.124Z,42.80
2022-12-04T04:34:21.744Z,39.83
2022-12-04T04:36:58.101Z,35.17
2022-12-04T04:39:34.479Z,44.23
2022-12-04T04:42:13.283Z,42.67
2022-12-04T04:44:48.664Z,43.83
2022-12-04T04:47:25.726Z,39.87
2022-12-04T04:49:57.629Z,45.07
2022-12-04T04:52:29.542Z,48.63
2022-12-04T04:55:03.934Z,43.13
2022-12-04T04:57:36.914Z,42.63
2022-12-04T05:00:09.911Z,44.53
2022-12-04T05:02:39.204Z,44.27
2022-12-04T05:05:09.625Z,45.73
2022-12-04T05:07:39.876Z,44.43
2022-12-04T05:10:12.369Z,48.63
2022-12-04T05:12:44.747Z,44.87
2022-12-04T05:15:19.916Z,42.43
2022-12-04T05:17:50.008Z,41.30
2022-12-04T05:20:18.444Z,48.10
2022-12-04T05:22:47.339Z,42.47
2022-12-04T05:25:17.678Z,45.07
2022-12-04T05:27:47.144Z,42.90
2022-12-04T05:30:16.933Z,42.87
2022-12-04T05:32:45.815Z,40.73
2022-12-04T05:35:14.468Z,44.63
2022-12-04T05:37:48.230Z,42.23
2022-12-04T05:40:18.772Z,41.43
2022-12-04T05:42:47.988Z,41.90
2022-12-04T05:45:17.297Z,41.93
2022-12-04T05:47:46.850Z,43.30
2022-12-04T05:50:15.975Z,40.03
2022-12-04T05:52:44.862Z,38.43
2022-12-04T05:55:14.067Z,40.90
2022-12-04T05:57:44.828Z,37.93
2022-12-04T06:00:16.477Z,39.47
2022-12-04T06:02:52.481Z,41.83
2022-12-04T06:05:23.410Z,42.40
2022-12-04T06:07:55.259Z,42.80
2022-12-04T06:10:23.998Z,37.17
2022-12-04T06:13:03.033Z,39.57
2022-12-04T06:15:42.912Z,40.23
2022-12-04T06:18:12.901Z,42.50
2022-12-04T06:20:43.506Z,45.33
2022-12-04T06:23:14.819Z,38.60
2022-12-04T06:25:44.258Z,41.13
2022-12-04T06:28:15.439Z,42.17
2022-12-04T06:30:46.535Z,42.57
2022-12-04T06:33:16.420Z,38.07
2022-12-04T06:35:48.336Z,41.37
2022-12-04T06:38:20.545Z,37.50
2022-12-04T06:40:51.272Z,43.73
2022-12-04T06:43:24.901Z,42.33
2022-12-04T06:46:04.328Z,42.53
2022-12-04T06:48:33.540Z,40.97
2022-12-04T06:51:03.030Z,36.70
2022-12-04T06:53:32.649Z,41.13
2022-12-04T06:56:03.169Z,41.93
2022-12-04T06:58:33.562Z,41.23
2022-12-04T07:01:07.839Z,40.87
2022-12-04T07:03:36.861Z,44.87
2022-12-04T07:06:16.302Z,42.30
2022-12-04T07:08:46.126Z,42.47
2022-12-04T07:11:15.648Z,42.10
2022-12-04T07:13:45.980Z,44.73
2022-12-04T07:16:16.603Z,48.50
2022-12-04T07:18:45.377Z,38.93
2022-12-04T07:21:18.150Z,40.93
2022-12-04T07:23:50.064Z,40.23
2022-12-04T07:26:19.300Z,42.07
2022-12-04T07:28:49.561Z,41.77
2022-12-04T07:31:20.953Z,35.28
2022-12-04T07:33:50.575Z,37.20
2022-12-04T07:36:21.245Z,43.33
2022-12-04T07:38:50.837Z,36.10
2022-12-04T07:41:21.431Z,38.93
2022-12-04T07:43:51.531Z,35.03
2022-12-04T07:46:23.156Z,37.13
2022-12-04T07:48:53.025Z,35.33
2022-12-04T07:51:23.345Z,35.53
2022-12-04T07:53:53.483Z,34.97
2022-12-04T07:56:22.630Z,33.97
2022-12-04T07:58:52.852Z,32.50
2022-12-04T08:01:23.771Z,38.37
2022-12-04T08:03:57.357Z,38.07
2022-12-04T08:06:28.572Z,34.83
2022-12-04T08:08:57.706Z,37.00
2022-12-04T08:11:28.248Z,34.17
2022-12-04T08:13:59.951Z,34.00
2022-12-04T08:16:29.590Z,36.17
2022-12-04T08:18:59.205Z,38.87
2022-12-04T08:21:30.804Z,37.67
2022-12-04T08:24:05.303Z,36.20
2022-12-04T08:26:34.866Z,42.10
2022-12-04T08:29:07.220Z,35.73
2022-12-04T08:31:38.111Z,36.57
2022-12-04T08:34:09.204Z,37.07
2022-12-04T08:36:40.076Z,37.90
2022-12-04T08:39:09.240Z,39.20
2022-12-04T08:41:38.504Z,35.63
2022-12-04T08:44:08.792Z,39.53
2022-12-04T08:46:38.121Z,37.78
2022-12-04T08:49:07.275Z,79.27
2022-12-04T08:51:36.375Z,41.23
2022-12-04T08:54:07.597Z,40.67
2022-12-04T08:56:37.747Z,35.53
2022-12-04T08:59:08.180Z,60.33
2022-12-04T09:01:36.956Z,39.07
2022-12-04T09:04:05.801Z,42.27
2022-12-04T09:06:34.966Z,36.80
2022-12-04T09:09:03.758Z,39.17
2022-12-04T09:11:33.180Z,38.87
2022-12-04T09:14:03.615Z,39.63
2022-12-04T09:16:33.881Z,37.03
2022-12-04T09:19:02.791Z,47.30
2022-12-04T09:21:31.680Z,33.17
2022-12-04T09:24:02.961Z,35.10
2022-12-04T09:26:44.072Z,31.90
2022-12-04T09:29:13.371Z,36.27
2022-12-04T09:31:43.469Z,37.40
2022-12-04T09:34:12.217Z,40.00
2022-12-04T09:36:44.014Z,42.53
2022-12-04T09:39:12.948Z,32.55
2022-12-04T09:42:20.340Z,43.30
2022-12-04T09:44:54.753Z,36.07
2022-12-04T09:47:29.017Z,35.73
2022-12-04T09:50:02.027Z,32.97
2022-12-04T09:52:49.537Z,35.73
2022-12-04T09:55:24.349Z,35.30
2022-12-04T09:58:01.355Z,32.57
2022-12-04T10:00:33.866Z,33.80
2022-12-04T10:03:07.227Z,34.53
2022-12-04T10:05:47.036Z,35.37
2022-12-04T10:08:22.269Z,38.23
2022-12-04T10:11:00.894Z,38.07
2022-12-04T10:13:59.251Z,40.50
2022-12-04T10:16:35.979Z,34.67
2022-12-04T10:19:14.340Z,33.60
2022-12-04T10:21:53.484Z,31.23
2022-12-04T10:24:33.092Z,41.03
2022-12-04T10:27:05.990Z,30.80
2022-12-04T10:29:37.448Z,35.73
2022-12-04T10:32:17.880Z,36.37
2022-12-04T10:34:50.118Z,30.67
2022-12-04T10:37:19.185Z,30.13
2022-12-04T10:39:54.301Z,40.00
2022-12-04T10:42:28.619Z,42.40
2022-12-04T10:44:59.974Z,39.37
2022-12-04T10:47:29.402Z,42.33
2022-12-04T10:50:06.528Z,43.30
2022-12-04T10:52:35.452Z,36.60
2022-12-04T10:55:04.265Z,65.17
2022-12-04T10:57:41.926Z,40.70
2022-12-04T11:00:30.164Z,38.67
2022-12-04T11:03:01.282Z,40.83
2022-12-04T11:05:34.718Z,41.87
2022-12-04T11:08:06.888Z,43.40
2022-12-04T11:10:38.169Z,43.33
2022-12-04T11:13:15.700Z,39.90
2022-12-04T11:15:46.094Z,39.60
2022-12-04T11:18:19.802Z,42.33
2022-12-04T11:20:55.739Z,36.53
2022-12-04T11:23:25.323Z,35.07
2022-12-04T11:26:02.114Z,39.03
2022-12-04T11:28:43.194Z,41.07
2022-12-04T11:31:18.362Z,43.43
2022-12-04T11:33:50.420Z,40.67
2022-12-04T11:36:25.997Z,42.33
2022-12-04T11:39:05.733Z,43.27
2022-12-04T11:41:35.242Z,42.27
2022-12-04T11:44:05.208Z,46.40
2022-12-04T11:47:00.737Z,54.03
2022-12-04T11:49:31.434Z,48.27
2022-12-04T11:52:15.600Z,44.37
2022-12-04T11:54:58.463Z,39.43
2022-12-04T11:57:33.506Z,47.20
2022-12-04T12:00:13.049Z,44.37
2022-12-04T12:03:11.449Z,55.23
2022-12-04T12:06:08.370Z,34.30
2022-12-04T12:08:56.133Z,33.87
2022-12-04T12:11:33.921Z,37.50
2022-12-04T12:14:10.123Z,36.93
2022-12-04T12:19:48.403Z,34.67
2022-12-04T12:22:30.165Z,39.03
2022-12-04T12:25:12.645Z,36.40
2022-12-04T12:28:03.016Z,39.13
2022-12-04T12:30:46.773Z,33.83
2022-12-04T12:33:23.331Z,31.93
2022-12-04T12:36:00.319Z,32.90
2022-12-04T12:38:33.940Z,32.30
2022-12-04T12:41:08.787Z,32.60
2022-12-04T12:43:40.228Z,59.80
2022-12-04T12:46:14.014Z,36.13
2022-12-04T12:48:57.964Z,40.63
2022-12-04T12:51:35.708Z,33.90
2022-12-04T12:54:16.865Z,30.10
2022-12-04T12:56:55.296Z,29.25
2022-12-04T12:59:28.269Z,33.77
2022-12-04T13:02:02.441Z,37.67
2022-12-04T13:04:35.678Z,36.40
2022-12-04T13:07:15.892Z,37.47
2022-12-04T13:09:49.643Z,34.08
2022-12-04T13:12:24.641Z,26.90
2022-12-04T13:14:53.421Z,38.50
2022-12-04T13:17:29.441Z,38.27
2022-12-04T13:20:04.141Z,39.87
2022-12-04T13:22:43.976Z,38.83
2022-12-04T13:25:39.942Z,40.33
2022-12-04T13:28:29.585Z,28.33
2022-12-04T13:31:16.222Z,29.73
2022-12-04T13:34:19.426Z,34.50
2022-12-04T13:37:04.016Z,38.90
2022-12-04T13:40:12.168Z,38.20
2022-12-04T13:42:41.185Z,33.67
2022-12-04T13:45:14.482Z,36.10
2022-12-04T13:47:43.308Z,25.67
2022-12-04T13:50:30.267Z,26.67
2022-12-04T13:52:59.200Z,40.83
2022-12-04T13:55:31.097Z,36.47
2022-12-04T13:58:01.578Z,38.40
2022-12-04T14:00:36.643Z,38.73
2022-12-04T14:03:08.511Z,38.07
2022-12-04T14:05:44.242Z,39.43
2022-12-04T14:08:25.929Z,42.33
2022-12-04T14:11:03.178Z,37.53
2022-12-04T14:13:46.011Z,36.67
2022-12-04T14:16:25.465Z,36.30
2022-12-04T14:18:59.616Z,39.97
2022-12-04T14:21:39.157Z,38.63
2022-12-04T14:24:18.736Z,37.47
2022-12-04T14:29:55.040Z,33.70
2022-12-04T14:32:28.212Z,31.50
2022-12-04T14:34:58.202Z,40.70
2022-12-04T14:37:32.327Z,35.57
2022-12-04T14:40:02.196Z,32.53
2022-12-04T14:42:37.768Z,29.83
2022-12-04T14:45:18.678Z,29.07
2022-12-04T14:47:57.060Z,30.13
2022-12-04T14:50:35.686Z,28.83
2022-12-04T14:53:14.440Z,30.67
2022-12-04T14:55:53.300Z,31.17
2022-12-04T14:58:34.923Z,27.13
2022-12-04T15:01:05.860Z,30.77
2022-12-04T15:03:38.717Z,29.57
2022-12-04T15:06:09.993Z,28.43
2022-12-04T15:08:49.231Z,29.47
2022-12-04T15:11:37.863Z,26.90
2022-12-04T15:14:13.055Z,28.47
2022-12-04T15:16:43.640Z,30.90
2022-12-04T15:19:19.122Z,27.40
2022-12-04T15:21:47.826Z,30.40
2022-12-04T15:24:23.532Z,28.53
2022-12-04T15:26:54.191Z,27.60
2022-12-04T15:29:26.729Z,25.55
2022-12-04T15:31:58.976Z,25.33
2022-12-04T15:34:39.464Z,35.73
2022-12-04T15:37:10.962Z,32.37
2022-12-04T15:39:39.858Z,31.40
2022-12-04T15:42:16.161Z,30.97
2022-12-04T15:44:54.048Z,29.30
2022-12-04T15:47:26.369Z,32.07
2022-12-04T15:49:57.085Z,32.33
2022-12-04T15:52:26.886Z,32.83
2022-12-04T15:54:58.164Z,27.38
2022-12-04T15:57:31.015Z,26.80
2022-12-04T16:00:03.040Z,42.47
2022-12-04T16:02:47.241Z,37.47
2022-12-04T16:05:29.809Z,30.20
2022-12-04T16:08:05.410Z,30.43
2022-12-04T16:10:38.490Z,31.73
2022-12-04T16:13:07.983Z,31.17
2022-12-04T16:15:40.670Z,29.33
2022-12-04T16:18:15.450Z,35.03
2022-12-04T16:20:47.378Z,32.40
2022-12-04T16:23:18.737Z,29.40
2022-12-04T16:25:53.415Z,30.73
2022-12-04T16:28:23.668Z,29.70
2022-12-04T16:30:55.557Z,34.10
2022-12-04T16:33:24.569Z,29.30
2022-12-04T16:35:55.393Z,31.47
2022-12-04T16:38:25.413Z,32.30
2022-12-04T16:40:54.931Z,28.90
2022-12-04T16:43:23.666Z,25.48
2022-12-04T16:45:54.873Z,28.57
2022-12-04T16:48:26.999Z,40.80
2022-12-04T16:50:59.987Z,39.93
2022-12-04T16:53:28.930Z,31.40
2022-12-04T16:55:59.510Z,35.93
2022-12-04T16:58:30.298Z,30.37
2022-12-04T17:00:59.791Z,28.07
2022-12-04T17:03:30.310Z,22.95
2022-12-04T17:06:01.979Z,23.43
2022-12-04T17:08:30.734Z,39.17
2022-12-04T17:10:59.500Z,30.60
2022-12-04T17:13:28.149Z,26.17
2022-12-04T17:15:56.807Z,28.30
2022-12-04T17:18:25.707Z,26.67
2022-12-04T17:20:57.389Z,23.30
2022-12-04T17:23:27.562Z,29.30
2022-12-04T17:25:56.164Z,27.97
2022-12-04T17:28:24.911Z,27.43
2022-12-04T17:30:53.577Z,27.37
2022-12-04T17:33:22.328Z,27.43
2022-12-04T17:35:51.039Z,26.43
2022-12-04T17:38:19.753Z,29.10
2022-12-04T17:41:00.223Z,27.27
2022-12-04T17:43:30.847Z,25.33
2022-12-04T17:45:59.757Z,26.37
2022-12-04T17:48:28.881Z,26.20
2022-12-04T17:51:06.669Z,26.73
2022-12-04T17:53:36.298Z,28.03
2022-12-04T17:56:09.226Z,29.43
2022-12-04T17:58:40.124Z,27.57
2022-12-04T18:01:10.415Z,26.30
2022-12-04T18:03:39.941Z,26.17
2022-12-04T18:06:16.229Z,25.00
2022-12-04T18:08:49.838Z,26.33
2022-12-04T18:11:21.937Z,28.20
2022-12-04T18:13:51.159Z,25.93
2022-12-04T18:16:19.949Z,26.23
2022-12-04T18:18:51.562Z,25.53
2022-12-04T18:21:20.839Z,28.27
2022-12-04T18:23:50.129Z,27.13
2022-12-04T18:26:22.350Z,25.07
2022-12-04T18:28:51.438Z,26.07
2022-12-04T18:31:21.306Z,24.50
2022-12-04T18:34:02.610Z,27.10
2022-12-04T18:36:32.636Z,25.27
2022-12-04T18:39:02.725Z,23.67
2022-12-04T18:41:32.863Z,25.67
2022-12-04T18:44:02.608Z,26.50
2022-12-04T18:46:31.743Z,24.43
2022-12-04T18:49:01.639Z,23.90
2022-12-04T18:51:31.897Z,25.13
2022-12-04T18:54:03.014Z,24.10
2022-12-04T18:56:35.481Z,26.23
2022-12-04T18:59:07.463Z,24.60
2022-12-04T19:01:36.689Z,25.57
2022-12-04T19:04:07.631Z,23.63
2022-12-04T19:06:38.596Z,27.50
2022-12-04T19:09:12.774Z,25.00
2022-12-04T19:11:45.341Z,26.13
2022-12-04T19:14:22.787Z,25.03
2022-12-04T19:16:52.767Z,23.43
2022-12-04T19:19:21.667Z,24.43
2022-12-04T19:21:50.906Z,25.17
2022-12-04T19:24:19.621Z,25.93
2022-12-04T19:26:55.326Z,23.70
2022-12-04T19:29:26.528Z,24.17
2022-12-04T19:31:59.486Z,25.70
2022-12-04T19:34:31.349Z,25.23
2022-12-04T19:37:00.081Z,27.40
2022-12-04T19:39:30.751Z,26.70
2022-12-04T19:42:03.670Z,28.53
2022-12-04T19:44:49.916Z,27.53
2022-12-04T19:47:23.008Z,23.60
2022-12-04T19:49:56.976Z,25.70
2022-12-04T19:52:25.892Z,27.73
2022-12-04T19:54:54.859Z,25.30
2022-12-04T19:57:26.699Z,24.37
2022-12-04T19:59:55.349Z,26.13
2022-12-04T20:02:24.182Z,24.30
2022-12-04T20:04:52.920Z,26.93
2022-12-04T20:07:21.637Z,26.63
2022-12-04T20:09:52.339Z,27.77
2022-12-04T20:12:24.699Z,28.47
2022-12-04T20:14:59.311Z,26.00
2022-12-04T20:17:32.554Z,30.33
2022-12-04T20:20:01.227Z,32.00
2022-12-04T20:22:29.862Z,29.47
2022-12-04T20:24:58.693Z,33.63
2022-12-04T20:27:27.437Z,21.80
2022-12-04T20:29:57.798Z,19.77
2022-12-04T20:32:28.339Z,23.43
2022-12-04T20:34:56.981Z,38.27
2022-12-04T20:37:28.005Z,41.80
2022-12-04T20:39:59.572Z,34.23
2022-12-04T20:42:33.275Z,33.53
2022-12-04T20:45:03.853Z,35.07
2022-12-04T20:47:39.921Z,34.57
2022-12-04T20:50:10.565Z,34.37
2022-12-04T20:52:39.256Z,29.33
2022-12-04T20:55:09.189Z,31.23
2022-12-04T20:57:38.454Z,32.20
2022-12-04T21:00:10.599Z,33.00
2022-12-04T21:02:39.411Z,32.53
2022-12-04T21:05:08.985Z,28.83
2022-12-04T21:07:37.598Z,32.40
2022-12-04T21:10:07.500Z,29.17
2022-12-04T21:12:55.409Z,31.40
2022-12-04T21:15:45.147Z,26.93
2022-12-04T21:18:13.895Z,25.37
2022-12-04T21:20:42.658Z,26.73
2022-12-04T21:23:11.442Z,28.10
2022-12-04T21:25:40.111Z,26.00
2022-12-04T21:28:08.766Z,24.07
2022-12-04T21:30:43.112Z,29.97
2022-12-04T21:33:14.967Z,29.83
2022-12-04T21:35:43.663Z,26.47
2022-12-04T21:38:12.673Z,27.53
2022-12-04T21:40:42.657Z,24.93
2022-12-04T21:43:11.454Z,27.07
2022-12-04T21:45:41.644Z,25.93
2022-12-04T21:48:10.266Z,26.90
2022-12-04T21:50:39.392Z,29.20
2022-12-04T21:53:08.123Z,28.43
2022-12-04T21:55:36.757Z,26.23
2022-12-04T21:58:05.444Z,18.45
2022-12-04T22:00:34.077Z,32.17
2022-12-04T22:03:07.565Z,34.53
2022-12-04T22:05:37.432Z,28.83
2022-12-04T22:08:08.623Z,24.03
2022-12-04T22:10:41.675Z,23.33
2022-12-04T22:13:10.504Z,19.38
2022-12-04T22:15:40.608Z,34.37
2022-12-04T22:18:12.401Z,31.10
2022-12-04T22:20:41.852Z,29.33
2022-12-04T22:23:11.214Z,27.93
2022-12-04T22:25:40.238Z,26.90
2022-12-04T22:28:08.959Z,24.47
2022-12-04T22:30:37.670Z,25.10
2022-12-04T22:33:06.532Z,24.33
2022-12-04T22:35:36.767Z,25.13
2022-12-04T22:38:05.484Z,23.90
2022-12-04T22:40:34.151Z,28.97
2022-12-04T22:43:02.891Z,24.03
2022-12-04T22:45:31.588Z,23.97
2022-12-04T22:48:00.295Z,23.60
2022-12-04T22:50:28.964Z,26.73
2022-12-04T22:52:59.481Z,27.30
2022-12-04T22:55:28.231Z,30.17
2022-12-04T22:57:56.975Z,27.53
2022-12-04T23:00:25.742Z,27.40
2022-12-04T23:02:54.444Z,27.10
2022-12-04T23:05:23.282Z,27.07
2022-12-04T23:07:52.253Z,25.60
2022-12-04T23:10:22.417Z,25.03
2022-12-04T23:12:51.070Z,27.27
2022-12-04T23:15:19.770Z,25.77
2022-12-04T23:17:48.521Z,24.63
2022-12-04T23:20:17.344Z,26.63
2022-12-04T23:22:46.290Z,24.73
2022-12-04T23:25:15.245Z,25.37
2022-12-04T23:27:45.376Z,29.13
2022-12-04T23:30:14.306Z,25.03
2022-12-04T23:32:43.025Z,24.73
2022-12-04T23:35:11.897Z,25.70
2022-12-04T23:37:40.511Z,24.80
2022-12-04T23:40:10.256Z,26.37
2022-12-04T23:42:38.876Z,23.90
2022-12-04T23:45:09.987Z,25.63
2022-12-04T23:47:38.817Z,26.67
2022-12-04T23:50:08.376Z,25.87
2022-12-04T23:52:37.413Z,26.33
2022-12-04T23:55:06.995Z,27.73
2022-12-04T23:57:35.825Z,29.17
